sensor_id;sensor_type;location;lat;lon;timestamp;P1;durP1;ratioP1;P2;durP2;ratioP2
12210;SDS011;6168;42.658;23.298;2022-07-12T04:00:20;5.97;;;2.22;;
12210;SDS011;6168;42.658;23.298;2022-07-12T04:02:47;9.98;;;3.10;;
12210;SDS011;6168;42.658;23.298;2022-07-12T04:05:14;6.50;;;2.63;;
12210;SDS011;6168;42.658;23.298;2022-07-12T04:07:40;5.50;;;3.67;;
12210;SDS011;6168;42.658;23.298;2022-07-12T04:10:07;2.92;;;2.72;;
12210;SDS011;6168;42.658;23.298;2022-07-12T04:12:35;5.82;;;2.50;;
12210;SDS011;6168;42.658;23.298;2022-07-12T04:15:02;3.55;;;2.42;;
12210;SDS011;6168;42.658;23.298;2022-07-12T04:17:31;3.30;;;3.00;;
12210;SDS011;6168;42.658;23.298;2022-07-12T04:19:58;4.40;;;2.30;;
12210;SDS011;6168;42.658;23.298;2022-07-12T04:22:25;3.30;;;3.00;;
12210;SDS011;6168;42.658;23.298;2022-07-12T04:24:52;4.90;;;2.35;;
12210;SDS011;6168;42.658;23.298;2022-07-12T04:27:18;8.45;;;2.15;;
12210;SDS011;6168;42.658;23.298;2022-07-12T04:29:45;2.75;;;2.55;;
12210;SDS011;6168;42.658;23.298;2022-07-12T04:32:12;3.00;;;2.17;;
12210;SDS011;6168;42.658;23.298;2022-07-12T04:34:40;3.10;;;2.90;;
12210;SDS011;6168;42.658;23.298;2022-07-12T04:37:07;3.22;;;1.60;;
12210;SDS011;6168;42.658;23.298;2022-07-12T04:39:34;2.45;;;2.28;;
12210;SDS011;6168;42.658;23.298;2022-07-12T04:42:01;4.03;;;1.80;;
12210;SDS011;6168;42.658;23.298;2022-07-12T04:44:28;3.58;;;2.38;;
12210;SDS011;6168;42.658;23.298;2022-07-12T04:46:55;2.50;;;1.90;;
12210;SDS011;6168;42.658;23.298;2022-07-12T04:49:21;2.75;;;1.95;;
12210;SDS011;6168;42.658;23.298;2022-07-12T04:51:50;2.13;;;1.95;;
12210;SDS011;6168;42.658;23.298;2022-07-12T04:54:16;1.40;;;1.40;;
12210;SDS011;6168;42.658;23.298;2022-07-12T04:56:43;2.15;;;1.58;;
12210;SDS011;6168;42.658;23.298;2022-07-12T04:59:10;2.78;;;1.63;;
12210;SDS011;6168;42.658;23.298;2022-07-12T05:01:37;3.42;;;1.65;;
12210;SDS011;6168;42.658;23.298;2022-07-12T05:04:05;7.13;;;2.00;;
12210;SDS011;6168;42.658;23.298;2022-07-12T05:06:32;2.47;;;1.35;;
12210;SDS011;6168;42.658;23.298;2022-07-12T05:09:00;5.53;;;1.80;;
12210;SDS011;6168;42.658;23.298;2022-07-12T05:11:27;1.90;;;1.63;;
12210;SDS011;6168;42.658;23.298;2022-07-12T05:13:54;1.75;;;1.55;;
12210;SDS011;6168;42.658;23.298;2022-07-12T05:16:20;3.38;;;1.63;;
12210;SDS011;6168;42.658;23.298;2022-07-12T05:18:47;4.10;;;1.48;;
12210;SDS011;6168;42.658;23.298;2022-07-12T05:21:14;7.05;;;1.90;;
12210;SDS011;6168;42.658;23.298;2022-07-12T05:23:41;4.72;;;2.03;;
12210;SDS011;6168;42.658;23.298;2022-07-12T05:26:09;2.72;;;2.05;;
12210;SDS011;6168;42.658;23.298;2022-07-12T05:28:37;7.20;;;1.90;;
12210;SDS011;6168;42.658;23.298;2022-07-12T05:31:04;2.72;;;1.30;;
12210;SDS011;6168;42.658;23.298;2022-07-12T05:33:30;6.40;;;1.83;;
12210;SDS011;6168;42.658;23.298;2022-07-12T05:35:57;3.35;;;2.00;;
12210;SDS011;6168;42.658;23.298;2022-07-12T05:38:24;4.13;;;1.67;;
12210;SDS011;6168;42.658;23.298;2022-07-12T05:40:51;4.78;;;1.83;;
12210;SDS011;6168;42.658;23.298;2022-07-12T05:43:19;4.47;;;1.45;;
12210;SDS011;6168;42.658;23.298;2022-07-12T05:46:04;3.60;;;1.40;;
12210;SDS011;6168;42.658;23.298;2022-07-12T05:48:31;3.25;;;1.40;;
12210;SDS011;6168;42.658;23.298;2022-07-12T05:50:58;5.07;;;1.70;;
12210;SDS011;6168;42.658;23.298;2022-07-12T05:53:45;3.55;;;1.50;;
12210;SDS011;6168;42.658;23.298;2022-07-12T05:56:11;2.17;;;1.10;;
12210;SDS011;6168;42.658;23.298;2022-07-12T05:58:40;2.92;;;1.05;;
12210;SDS011;6168;42.658;23.298;2022-07-12T06:01:07;5.22;;;1.10;;
12210;SDS011;6168;42.658;23.298;2022-07-12T06:03:34;1.55;;;1.05;;
12210;SDS011;6168;42.658;23.298;2022-07-12T06:06:01;2.17;;;0.85;;
12210;SDS011;6168;42.658;23.298;2022-07-12T06:08:27;2.60;;;0.95;;
12210;SDS011;6168;42.658;23.298;2022-07-12T06:10:54;7.72;;;0.70;;
12210;SDS011;6168;42.658;23.298;2022-07-12T06:13:21;0.57;;;0.20;;
12210;SDS011;6168;42.658;23.298;2022-07-12T06:15:51;6.75;;;0.50;;
12210;SDS011;6168;42.658;23.298;2022-07-12T06:18:17;2.75;;;0.30;;
12210;SDS011;6168;42.658;23.298;2022-07-12T06:20:44;3.00;;;0.30;;
12210;SDS011;6168;42.658;23.298;2022-07-12T06:23:11;0.57;;;0.20;;
12210;SDS011;6168;42.658;23.298;2022-07-12T06:25:38;0.95;;;0.20;;
12210;SDS011;6168;42.658;23.298;2022-07-12T06:28:05;3.03;;;0.40;;
12210;SDS011;6168;42.658;23.298;2022-07-12T06:30:32;3.55;;;0.40;;
12210;SDS011;6168;42.658;23.298;2022-07-12T06:33:01;1.77;;;0.50;;
12210;SDS011;6168;42.658;23.298;2022-07-12T06:35:27;2.25;;;0.40;;
12210;SDS011;6168;42.658;23.298;2022-07-12T16:28:24;0.30;;;0.25;;
12210;SDS011;6168;42.658;23.298;2022-07-12T16:30:51;0.98;;;0.15;;
12210;SDS011;6168;42.658;23.298;2022-07-12T16:33:18;1.02;;;0.20;;
12210;SDS011;6168;42.658;23.298;2022-07-12T16:35:44;0.52;;;0.10;;
12210;SDS011;6168;42.658;23.298;2022-07-12T16:38:11;0.60;;;0.17;;
12210;SDS011;6168;42.658;23.298;2022-07-12T16:40:38;0.60;;;0.17;;
12210;SDS011;6168;42.658;23.298;2022-07-12T16:43:05;0.90;;;0.20;;
12210;SDS011;6168;42.658;23.298;2022-07-12T16:45:33;1.27;;;0.20;;
12210;SDS011;6168;42.658;23.298;2022-07-12T16:48:00;5.15;;;0.20;;
12210;SDS011;6168;42.658;23.298;2022-07-12T16:50:27;1.88;;;0.20;;
12210;SDS011;6168;42.658;23.298;2022-07-12T16:52:54;2.10;;;0.20;;
12210;SDS011;6168;42.658;23.298;2022-07-12T16:55:21;0.20;;;0.20;;
12210;SDS011;6168;42.658;23.298;2022-07-12T16:57:48;3.33;;;0.30;;
12210;SDS011;6168;42.658;23.298;2022-07-12T17:00:15;0.63;;;0.20;;
12210;SDS011;6168;42.658;23.298;2022-07-12T17:02:44;2.13;;;0.55;;
12210;SDS011;6168;42.658;23.298;2022-07-12T17:05:11;1.45;;;0.30;;
12210;SDS011;6168;42.658;23.298;2022-07-12T17:07:38;0.65;;;0.25;;
12210;SDS011;6168;42.658;23.298;2022-07-12T17:10:05;1.27;;;0.30;;
12210;SDS011;6168;42.658;23.298;2022-07-12T17:12:33;1.23;;;0.28;;
12210;SDS011;6168;42.658;23.298;2022-07-12T17:15:01;2.08;;;0.40;;
12210;SDS011;6168;42.658;23.298;2022-07-12T17:17:29;0.75;;;0.30;;
12210;SDS011;6168;42.658;23.298;2022-07-12T17:19:57;1.65;;;0.30;;
12210;SDS011;6168;42.658;23.298;2022-07-12T17:22:24;0.85;;;0.30;;
12210;SDS011;6168;42.658;23.298;2022-07-12T17:24:51;2.17;;;0.38;;
12210;SDS011;6168;42.658;23.298;2022-07-12T17:27:18;1.73;;;0.38;;
12210;SDS011;6168;42.658;23.298;2022-07-12T17:29:44;1.27;;;0.20;;
12210;SDS011;6168;42.658;23.298;2022-07-12T17:32:11;2.25;;;0.30;;
12210;SDS011;6168;42.658;23.298;2022-07-12T17:34:38;2.83;;;0.30;;
12210;SDS011;6168;42.658;23.298;2022-07-12T17:37:06;0.55;;;0.20;;
12210;SDS011;6168;42.658;23.298;2022-07-12T17:39:33;1.98;;;0.30;;
12210;SDS011;6168;42.658;23.298;2022-07-12T17:42:00;2.72;;;0.40;;
12210;SDS011;6168;42.658;23.298;2022-07-12T17:44:27;0.40;;;0.30;;
12210;SDS011;6168;42.658;23.298;2022-07-12T17:46:54;1.48;;;0.25;;
12210;SDS011;6168;42.658;23.298;2022-07-12T17:49:21;1.85;;;0.20;;
12210;SDS011;6168;42.658;23.298;2022-07-12T17:51:47;0.40;;;0.40;;
12210;SDS011;6168;42.658;23.298;2022-07-12T17:54:16;1.90;;;0.40;;
12210;SDS011;6168;42.658;23.298;2022-07-12T17:56:42;1.73;;;0.30;;
12210;SDS011;6168;42.658;23.298;2022-07-12T17:59:09;0.50;;;0.30;;
12210;SDS011;6168;42.658;23.298;2022-07-12T18:01:36;0.75;;;0.40;;
12210;SDS011;6168;42.658;23.298;2022-07-12T18:04:04;0.60;;;0.30;;
12210;SDS011;6168;42.658;23.298;2022-07-12T18:06:31;0.95;;;0.30;;
12210;SDS011;6168;42.658;23.298;2022-07-12T18:08:59;3.25;;;0.40;;
12210;SDS011;6168;42.658;23.298;2022-07-12T18:11:28;0.85;;;0.20;;
12210;SDS011;6168;42.658;23.298;2022-07-12T18:14:12;1.48;;;0.40;;
12210;SDS011;6168;42.658;23.298;2022-07-12T18:16:56;2.25;;;0.30;;
12210;SDS011;6168;42.658;23.298;2022-07-12T18:19:40;1.35;;;0.60;;
12210;SDS011;6168;42.658;23.298;2022-07-12T18:22:07;4.18;;;0.30;;
12210;SDS011;6168;42.658;23.298;2022-07-12T18:24:34;1.50;;;0.30;;
12210;SDS011;6168;42.658;23.298;2022-07-12T18:27:03;0.63;;;0.30;;
12210;SDS011;6168;42.658;23.298;2022-07-12T18:29:30;0.95;;;0.35;;
12210;SDS011;6168;42.658;23.298;2022-07-12T18:31:56;1.60;;;0.30;;
12210;SDS011;6168;42.658;23.298;2022-07-12T18:34:23;1.10;;;0.30;;
12210;SDS011;6168;42.658;23.298;2022-07-12T18:36:50;1.50;;;0.30;;
12210;SDS011;6168;42.658;23.298;2022-07-12T18:39:17;0.65;;;0.30;;
12210;SDS011;6168;42.658;23.298;2022-07-12T18:41:44;0.98;;;0.40;;
12210;SDS011;6168;42.658;23.298;2022-07-12T18:44:12;0.70;;;0.30;;
12210;SDS011;6168;42.658;23.298;2022-07-12T18:46:39;1.30;;;0.32;;
12210;SDS011;6168;42.658;23.298;2022-07-12T18:49:06;2.05;;;1.10;;
12210;SDS011;6168;42.658;23.298;2022-07-12T18:51:33;1.10;;;0.30;;
12210;SDS011;6168;42.658;23.298;2022-07-12T18:54:00;1.20;;;0.45;;
12210;SDS011;6168;42.658;23.298;2022-07-12T18:56:27;0.85;;;0.50;;
12210;SDS011;6168;42.658;23.298;2022-07-12T18:58:54;1.38;;;0.30;;
12210;SDS011;6168;42.658;23.298;2022-07-12T19:01:22;3.50;;;0.65;;
12210;SDS011;6168;42.658;23.298;2022-07-12T19:03:50;1.00;;;0.30;;
12210;SDS011;6168;42.658;23.298;2022-07-12T19:06:17;1.25;;;0.40;;
12210;SDS011;6168;42.658;23.298;2022-07-12T19:08:44;0.30;;;0.30;;
12210;SDS011;6168;42.658;23.298;2022-07-12T19:11:11;1.38;;;0.40;;
12210;SDS011;6168;42.658;23.298;2022-07-12T19:13:38;1.27;;;0.30;;
12210;SDS011;6168;42.658;23.298;2022-07-12T19:16:05;0.30;;;0.20;;
12210;SDS011;6168;42.658;23.298;2022-07-12T19:18:33;0.98;;;0.38;;
12210;SDS011;6168;42.658;23.298;2022-07-12T19:21:00;1.88;;;0.43;;
12210;SDS011;6168;42.658;23.298;2022-07-12T19:23:27;1.20;;;0.30;;
12210;SDS011;6168;42.658;23.298;2022-07-12T19:25:54;0.68;;;0.20;;
12210;SDS011;6168;42.658;23.298;2022-07-12T19:28:21;0.30;;;0.20;;
12210;SDS011;6168;42.658;23.298;2022-07-12T19:30:48;0.93;;;0.43;;
12210;SDS011;6168;42.658;23.298;2022-07-12T19:33:15;0.80;;;0.40;;
12210;SDS011;6168;42.658;23.298;2022-07-12T19:35:43;2.47;;;0.30;;
12210;SDS011;6168;42.658;23.298;2022-07-12T19:38:10;0.30;;;0.30;;
12210;SDS011;6168;42.658;23.298;2022-07-12T19:40:37;2.05;;;0.40;;
12210;SDS011;6168;42.658;23.298;2022-07-12T19:43:04;4.57;;;0.20;;
12210;SDS011;6168;42.658;23.298;2022-07-12T19:45:31;0.98;;;0.30;;
12210;SDS011;6168;42.658;23.298;2022-07-12T19:47:58;3.10;;;0.30;;
12210;SDS011;6168;42.658;23.298;2022-07-12T19:50:25;0.40;;;0.20;;
12210;SDS011;6168;42.658;23.298;2022-07-12T19:52:54;0.90;;;0.30;;
12210;SDS011;6168;42.658;23.298;2022-07-12T19:55:23;2.75;;;0.30;;
12210;SDS011;6168;42.658;23.298;2022-07-12T19:57:51;5.15;;;0.57;;
